sensor_id;sensor_type;location;lat;lon;timestamp;P1;durP1;ratioP1;P2;durP2;ratioP2
44816;SDS011;30529;53.570;9.964;2023-04-08T00:00:07;17.33;;;9.17;;
44816;SDS011;30529;53.570;9.964;2023-04-08T00:02:33;15.17;;;8.87;;
44816;SDS011;30529;53.570;9.964;2023-04-08T00:05:00;17.17;;;8.60;;
44816;SDS011;30529;53.570;9.964;2023-04-08T00:07:26;14.77;;;8.30;;
44816;SDS011;30529;53.570;9.964;2023-04-08T00:09:52;15.20;;;9.00;;
44816;SDS011;30529;53.570;9.964;2023-04-08T00:12:18;16.83;;;8.80;;
44816;SDS011;30529;53.570;9.964;2023-04-08T00:14:44;16.63;;;8.33;;
44816;SDS011;30529;53.570;9.964;2023-04-08T00:17:10;16.77;;;8.77;;
44816;SDS011;30529;53.570;9.964;2023-04-08T00:19:35;16.37;;;9.23;;
44816;SDS011;30529;53.570;9.964;2023-04-08T00:22:01;14.13;;;8.47;;
44816;SDS011;30529;53.570;9.964;2023-04-08T00:24:28;18.90;;;8.63;;
44816;SDS011;30529;53.570;9.964;2023-04-08T00:26:54;14.27;;;8.10;;
44816;SDS011;30529;53.570;9.964;2023-04-08T00:29:20;12.83;;;8.37;;
44816;SDS011;30529;53.570;9.964;2023-04-08T00:31:46;12.90;;;7.60;;
44816;SDS011;30529;53.570;9.964;2023-04-08T00:34:13;18.97;;;8.87;;
44816;SDS011;30529;53.570;9.964;2023-04-08T00:36:39;12.97;;;7.63;;
44816;SDS011;30529;53.570;9.964;2023-04-08T00:39:05;11.97;;;8.03;;
44816;SDS011;30529;53.570;9.964;2023-04-08T00:41:34;11.70;;;7.63;;
44816;SDS011;30529;53.570;9.964;2023-04-08T00:44:00;13.03;;;8.47;;
44816;SDS011;30529;53.570;9.964;2023-04-08T00:46:26;12.57;;;7.10;;
44816;SDS011;30529;53.570;9.964;2023-04-08T00:48:53;12.77;;;7.93;;
44816;SDS011;30529;53.570;9.964;2023-04-08T00:51:19;15.30;;;8.17;;
44816;SDS011;30529;53.570;9.964;2023-04-08T00:53:45;12.10;;;7.63;;
44816;SDS011;30529;53.570;9.964;2023-04-08T00:56:11;11.83;;;7.73;;
44816;SDS011;30529;53.570;9.964;2023-04-08T00:58:37;14.70;;;8.37;;
44816;SDS011;30529;53.570;9.964;2023-04-08T01:01:05;13.57;;;7.40;;
44816;SDS011;30529;53.570;9.964;2023-04-08T01:06:33;12.33;;;7.40;;
44816;SDS011;30529;53.570;9.964;2023-04-08T01:09:07;11.40;;;7.33;;
44816;SDS011;30529;53.570;9.964;2023-04-08T01:11:34;14.17;;;8.03;;
44816;SDS011;30529;53.570;9.964;2023-04-08T01:14:06;9.93;;;6.93;;
44816;SDS011;30529;53.570;9.964;2023-04-08T01:16:35;11.80;;;7.10;;
44816;SDS011;30529;53.570;9.964;2023-04-08T01:19:04;12.47;;;7.77;;
44816;SDS011;30529;53.570;9.964;2023-04-08T01:21:34;11.07;;;7.40;;
44816;SDS011;30529;53.570;9.964;2023-04-08T01:24:06;13.03;;;7.37;;
44816;SDS011;30529;53.570;9.964;2023-04-08T01:26:48;14.37;;;7.20;;
44816;SDS011;30529;53.570;9.964;2023-04-08T01:29:14;13.97;;;6.37;;
44816;SDS011;30529;53.570;9.964;2023-04-08T01:31:41;9.20;;;6.43;;
44816;SDS011;30529;53.570;9.964;2023-04-08T01:34:09;11.27;;;7.20;;
44816;SDS011;30529;53.570;9.964;2023-04-08T01:36:36;12.30;;;7.27;;
44816;SDS011;30529;53.570;9.964;2023-04-08T01:39:03;9.43;;;6.07;;
44816;SDS011;30529;53.570;9.964;2023-04-08T01:41:31;10.10;;;6.10;;
44816;SDS011;30529;53.570;9.964;2023-04-08T01:44:00;13.27;;;7.03;;
44816;SDS011;30529;53.570;9.964;2023-04-08T01:46:28;11.93;;;6.73;;
44816;SDS011;30529;53.570;9.964;2023-04-08T01:48:56;12.77;;;6.70;;
44816;SDS011;30529;53.570;9.964;2023-04-08T01:51:24;12.17;;;6.80;;
44816;SDS011;30529;53.570;9.964;2023-04-08T01:53:51;15.53;;;7.37;;
44816;SDS011;30529;53.570;9.964;2023-04-08T01:56:17;13.57;;;7.23;;
44816;SDS011;30529;53.570;9.964;2023-04-08T01:58:47;13.63;;;7.80;;
44816;SDS011;30529;53.570;9.964;2023-04-08T02:01:17;11.83;;;6.83;;
44816;SDS011;30529;53.570;9.964;2023-04-08T02:03:46;12.00;;;6.73;;
44816;SDS011;30529;53.570;9.964;2023-04-08T02:06:16;12.87;;;6.83;;
44816;SDS011;30529;53.570;9.964;2023-04-08T02:08:42;13.43;;;6.83;;
44816;SDS011;30529;53.570;9.964;2023-04-08T02:11:08;14.00;;;7.23;;
44816;SDS011;30529;53.570;9.964;2023-04-08T02:13:34;11.13;;;7.43;;
44816;SDS011;30529;53.570;9.964;2023-04-08T02:16:15;13.00;;;6.90;;
44816;SDS011;30529;53.570;9.964;2023-04-08T02:19:10;9.77;;;6.50;;
44816;SDS011;30529;53.570;9.964;2023-04-08T02:21:51;10.87;;;5.90;;
44816;SDS011;30529;53.570;9.964;2023-04-08T02:24:31;9.77;;;6.20;;
44816;SDS011;30529;53.570;9.964;2023-04-08T02:26:59;10.13;;;6.03;;
44816;SDS011;30529;53.570;9.964;2023-04-08T02:29:26;9.60;;;6.17;;
44816;SDS011;30529;53.570;9.964;2023-04-08T02:31:55;9.93;;;6.80;;
44816;SDS011;30529;53.570;9.964;2023-04-08T02:34:23;10.60;;;5.97;;
44816;SDS011;30529;53.570;9.964;2023-04-08T02:36:50;11.00;;;6.57;;
44816;SDS011;30529;53.570;9.964;2023-04-08T02:39:16;9.00;;;5.80;;
44816;SDS011;30529;53.570;9.964;2023-04-08T02:41:42;11.50;;;6.50;;
44816;SDS011;30529;53.570;9.964;2023-04-08T02:44:08;10.77;;;6.77;;
44816;SDS011;30529;53.570;9.964;2023-04-08T02:46:34;9.80;;;7.00;;
44816;SDS011;30529;53.570;9.964;2023-04-08T02:49:00;11.57;;;6.93;;
44816;SDS011;30529;53.570;9.964;2023-04-08T02:51:26;11.20;;;6.93;;
44816;SDS011;30529;53.570;9.964;2023-04-08T02:53:52;9.07;;;6.07;;
44816;SDS011;30529;53.570;9.964;2023-04-08T02:56:18;8.20;;;4.80;;
44816;SDS011;30529;53.570;9.964;2023-04-08T02:58:46;12.93;;;6.87;;
44816;SDS011;30529;53.570;9.964;2023-04-08T03:01:12;11.77;;;6.37;;
44816;SDS011;30529;53.570;9.964;2023-04-08T03:03:38;9.87;;;6.20;;
44816;SDS011;30529;53.570;9.964;2023-04-08T03:06:04;10.90;;;6.70;;
44816;SDS011;30529;53.570;9.964;2023-04-08T03:08:29;10.13;;;6.27;;
44816;SDS011;30529;53.570;9.964;2023-04-08T03:10:55;11.57;;;7.40;;
44816;SDS011;30529;53.570;9.964;2023-04-08T03:13:21;10.93;;;7.00;;
44816;SDS011;30529;53.570;9.964;2023-04-08T03:15:47;11.33;;;7.50;;
44816;SDS011;30529;53.570;9.964;2023-04-08T03:18:13;14.30;;;7.40;;
44816;SDS011;30529;53.570;9.964;2023-04-08T03:20:39;12.00;;;7.67;;
44816;SDS011;30529;53.570;9.964;2023-04-08T03:23:05;12.33;;;7.17;;
44816;SDS011;30529;53.570;9.964;2023-04-08T03:25:31;12.83;;;7.27;;
44816;SDS011;30529;53.570;9.964;2023-04-08T03:27:57;12.07;;;7.70;;
44816;SDS011;30529;53.570;9.964;2023-04-08T03:30:23;13.47;;;8.13;;
44816;SDS011;30529;53.570;9.964;2023-04-08T03:32:49;12.67;;;8.00;;
44816;SDS011;30529;53.570;9.964;2023-04-08T03:35:16;12.50;;;7.60;;
44816;SDS011;30529;53.570;9.964;2023-04-08T03:37:42;13.33;;;8.00;;
44816;SDS011;30529;53.570;9.964;2023-04-08T03:40:07;14.13;;;8.80;;
44816;SDS011;30529;53.570;9.964;2023-04-08T03:42:34;16.57;;;9.00;;
44816;SDS011;30529;53.570;9.964;2023-04-08T03:45:00;18.03;;;9.43;;
44816;SDS011;30529;53.570;9.964;2023-04-08T03:47:26;16.63;;;9.97;;
44816;SDS011;30529;53.570;9.964;2023-04-08T03:49:52;16.40;;;9.87;;
44816;SDS011;30529;53.570;9.964;2023-04-08T03:52:21;15.63;;;9.30;;
44816;SDS011;30529;53.570;9.964;2023-04-08T03:54:48;16.70;;;9.70;;
44816;SDS011;30529;53.570;9.964;2023-04-08T03:57:14;20.93;;;9.53;;
44816;SDS011;30529;53.570;9.964;2023-04-08T03:59:40;17.80;;;10.60;;
44816;SDS011;30529;53.570;9.964;2023-04-08T04:02:06;19.60;;;11.13;;
44816;SDS011;30529;53.570;9.964;2023-04-08T04:04:32;19.10;;;10.57;;
44816;SDS011;30529;53.570;9.964;2023-04-08T04:06:58;18.53;;;10.97;;
44816;SDS011;30529;53.570;9.964;2023-04-08T04:09:24;22.00;;;11.33;;
44816;SDS011;30529;53.570;9.964;2023-04-08T04:11:50;20.93;;;11.30;;
44816;SDS011;30529;53.570;9.964;2023-04-08T04:14:16;21.13;;;11.47;;
44816;SDS011;30529;53.570;9.964;2023-04-08T04:16:42;21.77;;;11.03;;
44816;SDS011;30529;53.570;9.964;2023-04-08T04:19:08;22.10;;;10.77;;
44816;SDS011;30529;53.570;9.964;2023-04-08T04:21:34;20.53;;;11.20;;
44816;SDS011;30529;53.570;9.964;2023-04-08T04:24:00;19.63;;;10.80;;
44816;SDS011;30529;53.570;9.964;2023-04-08T04:26:26;19.27;;;11.27;;
44816;SDS011;30529;53.570;9.964;2023-04-08T04:28:52;22.07;;;11.40;;
44816;SDS011;30529;53.570;9.964;2023-04-08T04:31:18;21.17;;;11.83;;
44816;SDS011;30529;53.570;9.964;2023-04-08T04:33:46;23.50;;;10.97;;
44816;SDS011;30529;53.570;9.964;2023-04-08T04:36:13;27.93;;;13.07;;
44816;SDS011;30529;53.570;9.964;2023-04-08T04:38:40;20.67;;;12.00;;
44816;SDS011;30529;53.570;9.964;2023-04-08T04:41:07;24.70;;;12.37;;
44816;SDS011;30529;53.570;9.964;2023-04-08T04:43:33;19.57;;;10.63;;
44816;SDS011;30529;53.570;9.964;2023-04-08T04:45:59;21.87;;;11.70;;
44816;SDS011;30529;53.570;9.964;2023-04-08T04:48:26;25.93;;;11.47;;
44816;SDS011;30529;53.570;9.964;2023-04-08T04:50:55;25.60;;;11.77;;
44816;SDS011;30529;53.570;9.964;2023-04-08T04:53:22;21.63;;;11.03;;
44816;SDS011;30529;53.570;9.964;2023-04-08T04:55:49;23.33;;;11.53;;
44816;SDS011;30529;53.570;9.964;2023-04-08T04:58:15;24.77;;;11.17;;
44816;SDS011;30529;53.570;9.964;2023-04-08T05:00:42;22.87;;;11.30;;
44816;SDS011;30529;53.570;9.964;2023-04-08T05:03:08;20.03;;;11.30;;
44816;SDS011;30529;53.570;9.964;2023-04-08T05:05:34;22.80;;;10.93;;
44816;SDS011;30529;53.570;9.964;2023-04-08T05:08:00;20.67;;;10.70;;
44816;SDS011;30529;53.570;9.964;2023-04-08T05:10:26;23.90;;;12.00;;
44816;SDS011;30529;53.570;9.964;2023-04-08T05:12:52;19.13;;;11.03;;
44816;SDS011;30529;53.570;9.964;2023-04-08T05:15:18;20.27;;;11.43;;
44816;SDS011;30529;53.570;9.964;2023-04-08T05:17:44;21.13;;;10.87;;
44816;SDS011;30529;53.570;9.964;2023-04-08T05:20:10;21.27;;;10.87;;
44816;SDS011;30529;53.570;9.964;2023-04-08T05:22:36;21.97;;;11.03;;
44816;SDS011;30529;53.570;9.964;2023-04-08T05:25:02;21.80;;;11.07;;
44816;SDS011;30529;53.570;9.964;2023-04-08T05:27:29;18.33;;;10.50;;
44816;SDS011;30529;53.570;9.964;2023-04-08T05:29:54;20.47;;;11.57;;
44816;SDS011;30529;53.570;9.964;2023-04-08T05:32:20;22.77;;;11.53;;
44816;SDS011;30529;53.570;9.964;2023-04-08T05:34:46;18.83;;;10.63;;
44816;SDS011;30529;53.570;9.964;2023-04-08T05:37:12;21.33;;;11.97;;
44816;SDS011;30529;53.570;9.964;2023-04-08T05:39:38;18.30;;;10.50;;
44816;SDS011;30529;53.570;9.964;2023-04-08T05:42:04;23.30;;;10.90;;
44816;SDS011;30529;53.570;9.964;2023-04-08T05:44:30;18.23;;;10.40;;
44816;SDS011;30529;53.570;9.964;2023-04-08T05:46:56;26.23;;;12.10;;
44816;SDS011;30529;53.570;9.964;2023-04-08T05:49:22;23.87;;;12.03;;
44816;SDS011;30529;53.570;9.964;2023-04-08T05:51:48;21.23;;;11.63;;
44816;SDS011;30529;53.570;9.964;2023-04-08T05:54:14;19.13;;;10.23;;
44816;SDS011;30529;53.570;9.964;2023-04-08T05:56:40;22.53;;;11.07;;
44816;SDS011;30529;53.570;9.964;2023-04-08T05:59:06;19.47;;;10.97;;
44816;SDS011;30529;53.570;9.964;2023-04-08T06:01:32;22.50;;;11.00;;
44816;SDS011;30529;53.570;9.964;2023-04-08T06:03:58;19.87;;;10.53;;
44816;SDS011;30529;53.570;9.964;2023-04-08T06:06:24;21.13;;;11.00;;
44816;SDS011;30529;53.570;9.964;2023-04-08T06:08:50;21.63;;;11.20;;
44816;SDS011;30529;53.570;9.964;2023-04-08T06:11:16;22.67;;;11.60;;
44816;SDS011;30529;53.570;9.964;2023-04-08T06:13:42;20.47;;;11.17;;
44816;SDS011;30529;53.570;9.964;2023-04-08T06:16:15;23.10;;;11.53;;
44816;SDS011;30529;53.570;9.964;2023-04-08T06:18:44;26.93;;;11.73;;
44816;SDS011;30529;53.570;9.964;2023-04-08T06:21:10;22.70;;;11.37;;
44816;SDS011;30529;53.570;9.964;2023-04-08T06:23:36;19.43;;;10.53;;
44816;SDS011;30529;53.570;9.964;2023-04-08T06:26:02;21.63;;;12.17;;
44816;SDS011;30529;53.570;9.964;2023-04-08T06:28:29;21.70;;;12.07;;
44816;SDS011;30529;53.570;9.964;2023-04-08T06:30:55;23.47;;;11.23;;
44816;SDS011;30529;53.570;9.964;2023-04-08T06:33:22;21.57;;;11.60;;
44816;SDS011;30529;53.570;9.964;2023-04-08T06:35:48;21.63;;;11.67;;
44816;SDS011;30529;53.570;9.964;2023-04-08T06:38:14;23.20;;;11.23;;
44816;SDS011;30529;53.570;9.964;2023-04-08T06:40:40;22.20;;;11.30;;
44816;SDS011;30529;53.570;9.964;2023-04-08T06:43:06;21.97;;;11.90;;
44816;SDS011;30529;53.570;9.964;2023-04-08T06:45:32;19.73;;;11.30;;
44816;SDS011;30529;53.570;9.964;2023-04-08T06:47:59;21.33;;;11.63;;
44816;SDS011;30529;53.570;9.964;2023-04-08T06:50:25;20.20;;;11.07;;
44816;SDS011;30529;53.570;9.964;2023-04-08T06:52:51;20.13;;;10.70;;
44816;SDS011;30529;53.570;9.964;2023-04-08T06:55:16;18.67;;;10.57;;
44816;SDS011;30529;53.570;9.964;2023-04-08T06:57:42;21.67;;;11.47;;
44816;SDS011;30529;53.570;9.964;2023-04-08T07:00:09;20.90;;;10.57;;
44816;SDS011;30529;53.570;9.964;2023-04-08T07:02:35;19.03;;;11.13;;
44816;SDS011;30529;53.570;9.964;2023-04-08T07:05:01;16.97;;;10.60;;
44816;SDS011;30529;53.570;9.964;2023-04-08T07:07:27;20.30;;;11.47;;
44816;SDS011;30529;53.570;9.964;2023-04-08T07:09:53;21.97;;;11.20;;
44816;SDS011;30529;53.570;9.964;2023-04-08T07:12:19;22.03;;;11.70;;
44816;SDS011;30529;53.570;9.964;2023-04-08T07:14:45;24.73;;;13.13;;
44816;SDS011;30529;53.570;9.964;2023-04-08T07:17:11;19.90;;;11.40;;
44816;SDS011;30529;53.570;9.964;2023-04-08T07:19:37;22.47;;;11.90;;
44816;SDS011;30529;53.570;9.964;2023-04-08T07:22:03;20.53;;;10.70;;
44816;SDS011;30529;53.570;9.964;2023-04-08T07:24:29;20.40;;;11.30;;
44816;SDS011;30529;53.570;9.964;2023-04-08T07:26:55;22.37;;;10.83;;
44816;SDS011;30529;53.570;9.964;2023-04-08T07:29:21;26.10;;;12.80;;
44816;SDS011;30529;53.570;9.964;2023-04-08T07:31:47;19.00;;;10.60;;
44816;SDS011;30529;53.570;9.964;2023-04-08T07:34:13;19.70;;;11.20;;
44816;SDS011;30529;53.570;9.964;2023-04-08T07:36:39;19.67;;;10.83;;
44816;SDS011;30529;53.570;9.964;2023-04-08T07:39:05;23.53;;;11.20;;
44816;SDS011;30529;53.570;9.964;2023-04-08T07:41:31;18.53;;;11.00;;
44816;SDS011;30529;53.570;9.964;2023-04-08T07:43:57;26.80;;;11.40;;
44816;SDS011;30529;53.570;9.964;2023-04-08T07:46:23;24.07;;;11.10;;
44816;SDS011;30529;53.570;9.964;2023-04-08T07:48:49;21.67;;;11.20;;
44816;SDS011;30529;53.570;9.964;2023-04-08T07:51:16;23.33;;;10.43;;
44816;SDS011;30529;53.570;9.964;2023-04-08T07:53:42;20.13;;;10.90;;
44816;SDS011;30529;53.570;9.964;2023-04-08T07:56:12;18.50;;;10.03;;
44816;SDS011;30529;53.570;9.964;2023-04-08T07:58:39;16.37;;;9.73;;
44816;SDS011;30529;53.570;9.964;2023-04-08T08:01:15;15.73;;;9.43;;
44816;SDS011;30529;53.570;9.964;2023-04-08T08:03:43;16.33;;;9.50;;
44816;SDS011;30529;53.570;9.964;2023-04-08T08:06:10;16.90;;;9.03;;
44816;SDS011;30529;53.570;9.964;2023-04-08T08:08:36;16.20;;;9.43;;
44816;SDS011;30529;53.570;9.964;2023-04-08T08:11:02;19.23;;;9.90;;
44816;SDS011;30529;53.570;9.964;2023-04-08T08:13:28;18.83;;;8.93;;
44816;SDS011;30529;53.570;9.964;2023-04-08T08:15:54;15.43;;;8.93;;
44816;SDS011;30529;53.570;9.964;2023-04-08T08:18:20;20.63;;;9.60;;
44816;SDS011;30529;53.570;9.964;2023-04-08T08:20:46;16.17;;;9.17;;
44816;SDS011;30529;53.570;9.964;2023-04-08T08:23:12;14.33;;;8.07;;
44816;SDS011;30529;53.570;9.964;2023-04-08T08:25:38;16.30;;;8.80;;
44816;SDS011;30529;53.570;9.964;2023-04-08T08:28:04;16.43;;;8.73;;
44816;SDS011;30529;53.570;9.964;2023-04-08T08:30:30;16.47;;;8.67;;
44816;SDS011;30529;53.570;9.964;2023-04-08T08:32:56;16.40;;;9.10;;
44816;SDS011;30529;53.570;9.964;2023-04-08T08:35:23;13.50;;;7.77;;
44816;SDS011;30529;53.570;9.964;2023-04-08T08:37:49;14.00;;;8.00;;
44816;SDS011;30529;53.570;9.964;2023-04-08T08:40:16;15.80;;;9.07;;
44816;SDS011;30529;53.570;9.964;2023-04-08T08:42:48;16.40;;;8.50;;
44816;SDS011;30529;53.570;9.964;2023-04-08T08:45:18;16.97;;;9.23;;
44816;SDS011;30529;53.570;9.964;2023-04-08T08:47:45;15.37;;;9.27;;
44816;SDS011;30529;53.570;9.964;2023-04-08T08:50:11;14.90;;;8.97;;
44816;SDS011;30529;53.570;9.964;2023-04-08T08:52:37;17.03;;;9.37;;
44816;SDS011;30529;53.570;9.964;2023-04-08T08:55:03;14.73;;;9.23;;
44816;SDS011;30529;53.570;9.964;2023-04-08T08:57:30;19.57;;;9.93;;
44816;SDS011;30529;53.570;9.964;2023-04-08T08:59:56;16.53;;;9.10;;
44816;SDS011;30529;53.570;9.964;2023-04-08T09:02:25;17.07;;;8.70;;
44816;SDS011;30529;53.570;9.964;2023-04-08T09:04:59;16.50;;;8.27;;
44816;SDS011;30529;53.570;9.964;2023-04-08T09:07:30;13.43;;;8.30;;
44816;SDS011;30529;53.570;9.964;2023-04-08T09:09:59;14.60;;;9.47;;
44816;SDS011;30529;53.570;9.964;2023-04-08T09:12:26;14.43;;;8.33;;
44816;SDS011;30529;53.570;9.964;2023-04-08T09:15:02;14.97;;;8.77;;
44816;SDS011;30529;53.570;9.964;2023-04-08T09:17:33;16.23;;;8.17;;
44816;SDS011;30529;53.570;9.964;2023-04-08T09:20:04;15.77;;;9.00;;
44816;SDS011;30529;53.570;9.964;2023-04-08T09:25:23;15.87;;;8.80;;
44816;SDS011;30529;53.570;9.964;2023-04-08T09:27:50;18.40;;;9.10;;
44816;SDS011;30529;53.570;9.964;2023-04-08T09:30:18;15.33;;;8.43;;
44816;SDS011;30529;53.570;9.964;2023-04-08T09:32:48;14.20;;;8.67;;
44816;SDS011;30529;53.570;9.964;2023-04-08T09:35:21;14.57;;;8.43;;
44816;SDS011;30529;53.570;9.964;2023-04-08T09:37:48;16.37;;;8.80;;
44816;SDS011;30529;53.570;9.964;2023-04-08T09:40:15;17.30;;;8.60;;
44816;SDS011;30529;53.570;9.964;2023-04-08T09:42:46;16.40;;;9.97;;
44816;SDS011;30529;53.570;9.964;2023-04-08T09:45:15;16.47;;;8.97;;
44816;SDS011;30529;53.570;9.964;2023-04-08T09:50:42;15.27;;;9.40;;
44816;SDS011;30529;53.570;9.964;2023-04-08T09:53:18;16.57;;;8.60;;
44816;SDS011;30529;53.570;9.964;2023-04-08T09:55:50;15.53;;;8.63;;
44816;SDS011;30529;53.570;9.964;2023-04-08T09:58:30;13.30;;;7.73;;
44816;SDS011;30529;53.570;9.964;2023-04-08T10:01:03;13.13;;;8.50;;
44816;SDS011;30529;53.570;9.964;2023-04-08T10:03:43;16.63;;;9.33;;
44816;SDS011;30529;53.570;9.964;2023-04-08T10:06:13;13.97;;;8.43;;
44816;SDS011;30529;53.570;9.964;2023-04-08T10:08:41;13.63;;;8.70;;
44816;SDS011;30529;53.570;9.964;2023-04-08T10:11:07;16.80;;;8.53;;
44816;SDS011;30529;53.570;9.964;2023-04-08T10:13:34;17.83;;;9.17;;
44816;SDS011;30529;53.570;9.964;2023-04-08T10:16:19;14.40;;;9.10;;
44816;SDS011;30529;53.570;9.964;2023-04-08T10:18:47;16.37;;;9.10;;
44816;SDS011;30529;53.570;9.964;2023-04-08T10:24:06;18.17;;;9.47;;
44816;SDS011;30529;53.570;9.964;2023-04-08T10:26:39;18.13;;;10.13;;
44816;SDS011;30529;53.570;9.964;2023-04-08T10:31:46;18.23;;;10.13;;
44816;SDS011;30529;53.570;9.964;2023-04-08T10:34:19;16.30;;;9.93;;
44816;SDS011;30529;53.570;9.964;2023-04-08T10:36:47;17.47;;;9.73;;
44816;SDS011;30529;53.570;9.964;2023-04-08T10:39:14;13.90;;;8.53;;
44816;SDS011;30529;53.570;9.964;2023-04-08T10:41:44;12.80;;;8.63;;
44816;SDS011;30529;53.570;9.964;2023-04-08T10:44:17;14.60;;;8.50;;
44816;SDS011;30529;53.570;9.964;2023-04-08T10:46:45;13.60;;;8.40;;
44816;SDS011;30529;53.570;9.964;2023-04-08T10:49:13;14.93;;;8.97;;
44816;SDS011;30529;53.570;9.964;2023-04-08T10:51:40;13.40;;;8.97;;
44816;SDS011;30529;53.570;9.964;2023-04-08T10:54:09;13.33;;;8.43;;
44816;SDS011;30529;53.570;9.964;2023-04-08T10:56:44;15.53;;;9.33;;
44816;SDS011;30529;53.570;9.964;2023-04-08T10:59:10;18.40;;;9.10;;
44816;SDS011;30529;53.570;9.964;2023-04-08T11:01:41;16.63;;;9.17;;
44816;SDS011;30529;53.570;9.964;2023-04-08T11:04:12;13.40;;;9.47;;
44816;SDS011;30529;53.570;9.964;2023-04-08T11:06:40;13.57;;;8.87;;
44816;SDS011;30529;53.570;9.964;2023-04-08T11:09:07;16.77;;;10.20;;
44816;SDS011;30529;53.570;9.964;2023-04-08T11:11:34;15.93;;;10.23;;
44816;SDS011;30529;53.570;9.964;2023-04-08T11:14:00;15.73;;;10.23;;
44816;SDS011;30529;53.570;9.964;2023-04-08T11:16:26;16.67;;;10.50;;
44816;SDS011;30529;53.570;9.964;2023-04-08T11:18:53;17.07;;;10.50;;
44816;SDS011;30529;53.570;9.964;2023-04-08T11:21:22;20.70;;;12.03;;
44816;SDS011;30529;53.570;9.964;2023-04-08T11:23:48;20.17;;;11.77;;
44816;SDS011;30529;53.570;9.964;2023-04-08T11:26:16;26.07;;;12.57;;
44816;SDS011;30529;53.570;9.964;2023-04-08T11:28:42;18.00;;;11.73;;
44816;SDS011;30529;53.570;9.964;2023-04-08T11:31:10;19.40;;;12.03;;
44816;SDS011;30529;53.570;9.964;2023-04-08T11:33:37;18.63;;;11.47;;
44816;SDS011;30529;53.570;9.964;2023-04-08T11:36:09;21.33;;;12.97;;
44816;SDS011;30529;53.570;9.964;2023-04-08T11:38:40;18.20;;;11.37;;
44816;SDS011;30529;53.570;9.964;2023-04-08T11:41:06;23.13;;;13.53;;
44816;SDS011;30529;53.570;9.964;2023-04-08T11:43:32;18.97;;;12.20;;
44816;SDS011;30529;53.570;9.964;2023-04-08T11:46:07;21.43;;;11.93;;
44816;SDS011;30529;53.570;9.964;2023-04-08T11:48:37;22.33;;;12.37;;
44816;SDS011;30529;53.570;9.964;2023-04-08T11:51:04;19.77;;;11.73;;
44816;SDS011;30529;53.570;9.964;2023-04-08T11:53:33;19.43;;;12.40;;
44816;SDS011;30529;53.570;9.964;2023-04-08T11:56:18;20.80;;;13.00;;
44816;SDS011;30529;53.570;9.964;2023-04-08T11:58:45;25.03;;;13.50;;
44816;SDS011;30529;53.570;9.964;2023-04-08T12:01:12;24.93;;;13.47;;
44816;SDS011;30529;53.570;9.964;2023-04-08T12:03:41;22.60;;;13.77;;
44816;SDS011;30529;53.570;9.964;2023-04-08T12:06:18;19.93;;;12.40;;
44816;SDS011;30529;53.570;9.964;2023-04-08T12:08:44;22.27;;;12.60;;
44816;SDS011;30529;53.570;9.964;2023-04-08T12:11:10;21.63;;;11.37;;
44816;SDS011;30529;53.570;9.964;2023-04-08T12:13:36;19.53;;;12.33;;
44816;SDS011;30529;53.570;9.964;2023-04-08T12:16:02;15.80;;;11.13;;
44816;SDS011;30529;53.570;9.964;2023-04-08T12:18:29;19.20;;;11.47;;
44816;SDS011;30529;53.570;9.964;2023-04-08T12:20:54;18.60;;;10.30;;
44816;SDS011;30529;53.570;9.964;2023-04-08T12:23:20;17.57;;;10.73;;
44816;SDS011;30529;53.570;9.964;2023-04-08T12:25:46;17.60;;;11.10;;
44816;SDS011;30529;53.570;9.964;2023-04-08T12:28:12;15.03;;;11.37;;
44816;SDS011;30529;53.570;9.964;2023-04-08T12:30:38;18.47;;;12.13;;
44816;SDS011;30529;53.570;9.964;2023-04-08T12:33:05;19.57;;;11.93;;
44816;SDS011;30529;53.570;9.964;2023-04-08T12:35:31;18.00;;;11.43;;
44816;SDS011;30529;53.570;9.964;2023-04-08T12:37:57;18.57;;;11.57;;
44816;SDS011;30529;53.570;9.964;2023-04-08T12:40:23;18.30;;;12.23;;
44816;SDS011;30529;53.570;9.964;2023-04-08T12:42:49;19.93;;;11.80;;
44816;SDS011;30529;53.570;9.964;2023-04-08T12:45:15;20.93;;;10.87;;
44816;SDS011;30529;53.570;9.964;2023-04-08T12:47:41;20.17;;;11.73;;
44816;SDS011;30529;53.570;9.964;2023-04-08T12:50:07;15.87;;;10.60;;
44816;SDS011;30529;53.570;9.964;2023-04-08T12:52:34;21.90;;;11.43;;
44816;SDS011;30529;53.570;9.964;2023-04-08T12:55:00;17.63;;;10.77;;
44816;SDS011;30529;53.570;9.964;2023-04-08T12:57:26;21.23;;;11.80;;
44816;SDS011;30529;53.570;9.964;2023-04-08T12:59:52;20.50;;;11.70;;
44816;SDS011;30529;53.570;9.964;2023-04-08T13:02:18;19.60;;;11.10;;
44816;SDS011;30529;53.570;9.964;2023-04-08T13:04:44;21.63;;;12.20;;
44816;SDS011;30529;53.570;9.964;2023-04-08T13:07:11;19.03;;;11.87;;
44816;SDS011;30529;53.570;9.964;2023-04-08T13:09:37;19.17;;;11.53;;
44816;SDS011;30529;53.570;9.964;2023-04-08T13:12:02;19.77;;;11.93;;
44816;SDS011;30529;53.570;9.964;2023-04-08T13:14:29;23.70;;;12.37;;
44816;SDS011;30529;53.570;9.964;2023-04-08T13:16:55;20.23;;;11.27;;
44816;SDS011;30529;53.570;9.964;2023-04-08T13:19:21;19.60;;;11.77;;
44816;SDS011;30529;53.570;9.964;2023-04-08T13:21:47;15.27;;;10.50;;
44816;SDS011;30529;53.570;9.964;2023-04-08T13:24:13;17.77;;;11.27;;
44816;SDS011;30529;53.570;9.964;2023-04-08T13:26:39;20.43;;;11.23;;
44816;SDS011;30529;53.570;9.964;2023-04-08T13:29:05;17.50;;;10.47;;
44816;SDS011;30529;53.570;9.964;2023-04-08T13:31:31;18.37;;;11.37;;
44816;SDS011;30529;53.570;9.964;2023-04-08T13:33:57;17.80;;;11.27;;
44816;SDS011;30529;53.570;9.964;2023-04-08T13:36:23;18.67;;;10.80;;
44816;SDS011;30529;53.570;9.964;2023-04-08T13:38:49;18.07;;;11.37;;
44816;SDS011;30529;53.570;9.964;2023-04-08T13:41:15;17.97;;;11.27;;
44816;SDS011;30529;53.570;9.964;2023-04-08T13:43:41;19.53;;;10.70;;
44816;SDS011;30529;53.570;9.964;2023-04-08T13:46:07;17.47;;;11.63;;
44816;SDS011;30529;53.570;9.964;2023-04-08T13:48:33;13.97;;;10.23;;
44816;SDS011;30529;53.570;9.964;2023-04-08T13:51:00;15.20;;;9.63;;
44816;SDS011;30529;53.570;9.964;2023-04-08T13:53:25;20.33;;;11.40;;
44816;SDS011;30529;53.570;9.964;2023-04-08T13:55:52;19.47;;;11.50;;
44816;SDS011;30529;53.570;9.964;2023-04-08T13:58:20;21.43;;;12.27;;
44816;SDS011;30529;53.570;9.964;2023-04-08T14:00:46;17.87;;;10.47;;
44816;SDS011;30529;53.570;9.964;2023-04-08T14:03:12;18.80;;;11.53;;
44816;SDS011;30529;53.570;9.964;2023-04-08T14:05:38;18.03;;;12.47;;
44816;SDS011;30529;53.570;9.964;2023-04-08T14:08:04;19.13;;;11.50;;
44816;SDS011;30529;53.570;9.964;2023-04-08T14:10:30;19.03;;;11.13;;
44816;SDS011;30529;53.570;9.964;2023-04-08T14:12:56;17.80;;;11.63;;
44816;SDS011;30529;53.570;9.964;2023-04-08T14:15:22;15.97;;;10.40;;
44816;SDS011;30529;53.570;9.964;2023-04-08T14:17:48;16.90;;;11.20;;
44816;SDS011;30529;53.570;9.964;2023-04-08T14:20:14;16.73;;;10.97;;
44816;SDS011;30529;53.570;9.964;2023-04-08T14:22:40;15.03;;;10.93;;
44816;SDS011;30529;53.570;9.964;2023-04-08T14:25:06;17.17;;;11.10;;
44816;SDS011;30529;53.570;9.964;2023-04-08T14:27:33;17.57;;;11.60;;
44816;SDS011;30529;53.570;9.964;2023-04-08T14:29:59;19.03;;;12.33;;
44816;SDS011;30529;53.570;9.964;2023-04-08T14:32:25;18.43;;;12.20;;
44816;SDS011;30529;53.570;9.964;2023-04-08T14:34:51;21.97;;;13.73;;
44816;SDS011;30529;53.570;9.964;2023-04-08T14:37:17;27.80;;;12.77;;
44816;SDS011;30529;53.570;9.964;2023-04-08T14:39:43;19.83;;;12.27;;
44816;SDS011;30529;53.570;9.964;2023-04-08T14:42:09;18.47;;;11.93;;